createdAt,value
2023-04-06T03:44:18.558Z,8.38
2023-04-06T03:46:59.455Z,9.95
2023-04-06T03:52:53.673Z,9.93
2023-04-06T04:38:26.570Z,8.40
2023-04-06T04:44:33.625Z,8.75
2023-04-06T04:58:42.258Z,9.27
2023-04-06T05:01:11.722Z,10.20
2023-04-06T05:09:39.623Z,7.47
2023-04-06T05:36:38.985Z,9.85
2023-04-06T05:39:13.624Z,7.70
2023-04-06T05:41:50.502Z,7.20
2023-04-06T05:50:00.811Z,6.93
2023-04-06T05:52:42.269Z,8.10
2023-04-06T05:55:17.754Z,8.65
2023-04-06T05:58:06.326Z,9.60
2023-04-06T06:00:45.580Z,8.10
2023-04-06T06:03:25.288Z,8.10
2023-04-06T06:06:01.788Z,10.47
2023-04-06T06:08:37.696Z,8.35
2023-04-06T06:17:09.229Z,9.83
2023-04-06T06:20:09.760Z,7.40
2023-04-06T06:23:01.332Z,7.28
2023-04-06T06:25:49.436Z,12.75
2023-04-06T06:28:29.171Z,8.40
2023-04-06T06:31:16.488Z,8.80
2023-04-06T06:36:42.649Z,8.00
2023-04-06T06:39:18.491Z,8.10
2023-04-06T06:41:56.091Z,8.23
2023-04-06T06:44:41.531Z,6.65
2023-04-06T06:50:15.478Z,7.75
2023-04-06T06:52:57.622Z,6.25
2023-04-06T06:55:40.892Z,6.47
2023-04-06T07:10:00.878Z,6.93
2023-04-06T07:28:13.076Z,9.50
2023-04-06T07:30:49.951Z,8.80
2023-04-06T07:33:33.366Z,9.35
2023-04-06T07:36:10.197Z,7.65
2023-04-06T07:38:49.025Z,8.32
2023-04-06T07:42:02.543Z,9.10
2023-04-06T07:44:54.920Z,12.18
2023-04-06T07:52:56.195Z,8.52
2023-04-06T07:55:30.844Z,8.25
2023-04-06T07:58:07.945Z,12.27
2023-04-06T08:00:39.431Z,9.40
2023-04-06T08:03:13.900Z,12.30
2023-04-06T08:05:51.471Z,12.57
2023-04-06T08:08:19.596Z,14.13
2023-04-06T08:10:54.357Z,9.55
2023-04-06T08:13:21.674Z,9.27
2023-04-06T08:15:49.123Z,8.98
2023-04-06T08:18:18.988Z,9.30
2023-04-06T08:20:57.048Z,8.97
2023-04-06T08:23:24.547Z,9.45
2023-04-06T08:25:54.433Z,9.02
2023-04-06T08:28:29.729Z,10.80
2023-04-06T08:31:07.676Z,11.75
2023-04-06T08:33:41.803Z,11.35
2023-04-06T08:39:01.113Z,9.82
2023-04-06T08:41:29.575Z,9.70
2023-04-06T08:44:05.307Z,11.93
2023-04-06T08:46:38.864Z,8.98
2023-04-06T08:49:15.348Z,11.20
2023-04-06T08:51:51.512Z,12.87
2023-04-06T08:54:28.327Z,9.00
2023-04-06T08:57:03.853Z,10.25
2023-04-06T08:59:43.705Z,9.50
2023-04-06T09:02:18.429Z,10.07
2023-04-06T09:04:49.742Z,10.80
2023-04-06T09:07:26.651Z,14.30
2023-04-06T09:09:55.646Z,12.88
2023-04-06T09:12:44.307Z,12.70
2023-04-06T09:15:20.789Z,14.60
2023-04-06T09:17:50.188Z,12.90
2023-04-06T09:20:25.318Z,11.90
2023-04-06T09:23:16.532Z,14.70
2023-04-06T09:25:51.484Z,12.20
2023-04-06T09:28:24.818Z,11.32
2023-04-06T09:30:55.171Z,12.65
2023-04-06T09:33:34.335Z,17.10
2023-04-06T09:36:16.362Z,13.95
2023-04-06T09:38:55.712Z,10.38
2023-04-06T09:41:52.702Z,12.50
2023-04-06T09:44:38.271Z,13.75
2023-04-06T09:47:13.677Z,13.45
2023-04-06T09:49:52.409Z,14.13
2023-04-06T09:52:35.228Z,12.15
2023-04-06T09:55:25.131Z,13.95
2023-04-06T09:58:05.049Z,13.60
2023-04-06T10:03:32.405Z,13.60
2023-04-06T10:06:13.718Z,16.35
2023-04-06T10:08:45.103Z,12.68
2023-04-06T10:11:17.243Z,13.63
2023-04-06T10:13:45.463Z,14.68
2023-04-06T10:16:16.182Z,13.27
2023-04-06T10:18:48.330Z,14.73
2023-04-06T10:21:22.509Z,12.90
2023-04-06T10:23:53.899Z,15.93
2023-04-06T10:26:24.525Z,18.02
2023-04-06T10:29:06.415Z,14.75
2023-04-06T10:31:41.986Z,11.88
2023-04-06T10:34:22.398Z,12.88
2023-04-06T10:36:50.285Z,19.88
2023-04-06T10:39:45.055Z,13.05
2023-04-06T10:42:19.120Z,11.95
2023-04-06T10:50:33.953Z,13.25
2023-04-06T10:53:08.558Z,14.35
2023-04-06T10:55:36.192Z,14.77
2023-04-06T10:58:10.760Z,13.00
2023-04-06T11:00:51.251Z,12.90
2023-04-06T11:03:27.658Z,15.60
2023-04-06T11:06:08.931Z,16.67
2023-04-06T11:08:48.419Z,18.25
2023-04-06T11:11:22.737Z,15.80
2023-04-06T11:14:00.069Z,16.58
2023-04-06T11:19:19.219Z,12.90
2023-04-06T11:22:17.741Z,16.05
2023-04-06T11:27:49.231Z,16.27
2023-04-06T11:30:43.167Z,18.75
2023-04-06T11:33:27.583Z,20.15
2023-04-06T11:42:06.127Z,18.50
2023-04-06T11:44:47.375Z,17.02
2023-04-06T11:47:34.578Z,20.27
2023-04-06T11:50:27.717Z,16.27
2023-04-06T11:53:02.736Z,14.70
2023-04-06T12:05:15.578Z,15.20
2023-04-06T12:07:52.855Z,18.50
2023-04-06T12:17:27.275Z,15.60
2023-04-06T12:20:18.023Z,15.60
2023-04-06T12:23:01.809Z,16.13
2023-04-06T12:25:43.845Z,15.23
2023-04-06T12:28:28.206Z,15.20
2023-04-06T12:33:45.777Z,16.00
2023-04-06T12:36:14.482Z,17.85
2023-04-06T12:44:19.736Z,15.90
2023-04-06T12:46:54.636Z,15.85
2023-04-06T13:01:23.331Z,15.65
2023-04-06T13:06:42.885Z,15.68
2023-04-06T13:23:07.450Z,15.85
2023-04-06T13:29:27.610Z,15.80
2023-04-06T13:45:05.775Z,10.95
2023-04-06T13:47:42.483Z,11.35
2023-04-06T13:50:20.977Z,13.40
2023-04-06T14:10:41.722Z,12.55
2023-04-06T14:13:20.453Z,11.40
2023-04-06T14:15:58.941Z,12.35
2023-04-06T14:18:35.292Z,13.10
2023-04-06T14:21:11.049Z,11.43
2023-04-06T14:23:47.737Z,10.30
2023-04-06T14:26:23.943Z,9.63
2023-04-06T14:29:01.216Z,8.45
2023-04-06T14:31:37.109Z,8.27
2023-04-06T14:34:12.134Z,10.10
2023-04-06T14:36:48.083Z,8.40
2023-04-06T14:39:23.310Z,10.10
2023-04-06T14:41:57.723Z,10.65
2023-04-06T14:44:32.311Z,9.45
2023-04-06T14:47:08.085Z,10.95
2023-04-06T14:49:54.409Z,10.93
2023-04-06T14:52:33.655Z,8.05
2023-04-06T14:55:46.076Z,7.10
2023-04-06T14:58:36.552Z,8.30
2023-04-06T15:01:11.966Z,8.00
2023-04-06T15:03:51.765Z,7.15
2023-04-06T15:06:31.881Z,7.60
2023-04-06T15:09:07.313Z,7.20
2023-04-06T15:12:14.977Z,10.70
2023-04-06T15:14:54.899Z,10.45
2023-04-06T15:17:49.676Z,9.63
2023-04-06T15:23:31.040Z,12.77
2023-04-06T15:26:06.259Z,8.00
2023-04-06T15:28:42.111Z,8.45
2023-04-06T15:31:36.697Z,7.30
2023-04-06T15:34:13.332Z,9.43
2023-04-06T15:36:48.165Z,8.15
2023-04-06T15:39:24.088Z,9.60
2023-04-06T15:41:59.185Z,8.70
2023-04-06T15:44:38.238Z,9.77
2023-04-06T15:47:13.264Z,9.57
2023-04-06T15:49:49.280Z,8.10
2023-04-06T15:52:26.322Z,6.50
2023-04-06T15:55:02.301Z,6.60
2023-04-06T15:57:37.166Z,6.30
2023-04-06T16:00:15.467Z,7.13
2023-04-06T16:02:50.440Z,7.60
2023-04-06T16:05:29.989Z,7.83
2023-04-06T16:11:11.445Z,6.75
2023-04-06T16:13:54.660Z,6.78
2023-04-06T16:16:31.461Z,6.10
2023-04-06T16:19:07.252Z,7.43
2023-04-06T16:21:42.276Z,6.40
2023-04-06T16:24:18.004Z,7.65
2023-04-06T16:26:45.505Z,7.20
2023-04-06T16:29:20.985Z,8.77
2023-04-06T16:31:48.384Z,5.40
2023-04-06T16:34:16.035Z,8.20
2023-04-06T16:36:43.748Z,7.53
2023-04-06T16:39:17.505Z,5.93
2023-04-06T16:41:44.790Z,7.88
2023-04-06T16:44:13.219Z,8.10
2023-04-06T16:46:41.591Z,7.28
2023-04-06T16:49:08.832Z,5.85
2023-04-06T16:51:37.225Z,5.53
2023-04-06T16:54:04.725Z,5.63
2023-04-06T16:56:32.555Z,6.68
2023-04-06T16:59:07.174Z,5.40
2023-04-06T17:01:41.375Z,6.53
2023-04-06T17:04:08.618Z,6.57
2023-04-06T17:06:35.984Z,5.95
2023-04-06T17:09:14.109Z,5.78
2023-04-06T17:11:46.884Z,4.82
2023-04-06T17:14:14.016Z,5.80
2023-04-06T17:16:47.241Z,5.35
2023-04-06T17:19:15.052Z,6.90
2023-04-06T17:21:42.461Z,5.45
2023-04-06T17:24:18.015Z,4.93
2023-04-06T17:26:48.899Z,5.78
2023-04-06T17:29:16.334Z,4.18
2023-04-06T17:31:46.180Z,5.15
2023-04-06T17:34:13.420Z,5.57
2023-04-06T17:36:40.995Z,5.85
2023-04-06T17:39:12.266Z,5.07
2023-04-06T17:41:39.997Z,4.13
2023-04-06T17:44:10.026Z,4.78
2023-04-06T17:46:45.359Z,4.95
2023-04-06T17:49:19.155Z,4.80
2023-04-06T17:51:46.266Z,4.05
2023-04-06T17:54:20.095Z,5.22
2023-04-06T17:56:49.409Z,6.95
2023-04-06T17:59:18.091Z,4.43
2023-04-06T18:01:52.251Z,5.53
2023-04-06T18:04:19.334Z,5.00
2023-04-06T18:06:47.079Z,5.60
2023-04-06T18:09:14.897Z,8.38
2023-04-06T18:11:42.502Z,4.47
2023-04-06T18:14:11.166Z,5.28
2023-04-06T18:16:48.993Z,4.38
2023-04-06T18:19:16.306Z,5.82
2023-04-06T18:21:43.671Z,6.20
2023-04-06T18:24:18.784Z,7.38
2023-04-06T18:26:52.358Z,5.00
2023-04-06T18:29:28.193Z,5.47
2023-04-06T18:31:55.359Z,5.22
2023-04-06T18:34:23.043Z,4.95
2023-04-06T18:36:51.143Z,4.68
2023-04-06T18:39:18.490Z,4.85
2023-04-06T18:41:46.605Z,7.30
2023-04-06T18:44:13.640Z,5.57
2023-04-06T18:46:55.407Z,6.20
2023-04-06T18:49:22.701Z,6.32
2023-04-06T18:51:54.170Z,6.95
2023-04-06T18:54:21.382Z,8.23
2023-04-06T18:56:48.781Z,6.53
2023-04-06T18:59:20.100Z,6.57
2023-04-06T19:01:51.306Z,5.82
2023-04-06T19:04:29.606Z,7.80
2023-04-06T19:06:56.953Z,6.70
2023-04-06T19:09:27.421Z,7.32
2023-04-06T19:11:57.747Z,8.88
2023-04-06T19:14:25.045Z,8.55
2023-04-06T19:16:59.643Z,8.52
2023-04-06T19:19:26.924Z,8.38
2023-04-06T19:22:02.219Z,7.78
2023-04-06T19:24:38.286Z,7.85
2023-04-06T19:27:05.118Z,7.57
2023-04-06T19:29:39.125Z,7.65
2023-04-06T19:34:35.912Z,6.85
2023-04-06T19:37:12.226Z,6.40
2023-04-06T19:39:48.294Z,6.67
2023-04-06T19:42:26.090Z,7.90
2023-04-06T19:45:01.219Z,6.88
2023-04-06T19:47:28.596Z,6.05
